Time;durP1;ratioP1;P1;durP2;ratioP2;P2;SDS_P1;SDS_P2;PMS_P1;PMS_P2;Temp;Humidity;BMP_temperature;BMP_pressure;BME280_temperature;BME280_humidity;BME280_pressure;Samples;Min_cycle;Max_cycle;Signal;HPM_P1;HPM_P2
2022/05/12 00:02:10;;;;;;;4.70;4.17;;;;;;;;;;5073153;28;20297;-80
2022/05/12 00:04:38;;;;;;;6.37;3.93;;;;;;;;;;5073199;28;20219;-80
2022/05/12 00:07:07;;;;;;;4.00;3.70;;;;;;;;;;5073071;28;20197;-79
2022/05/12 00:09:35;;;;;;;4.17;3.87;;;;;;;;;;5073446;28;20208;-79
2022/05/12 00:12:02;;;;;;;5.30;4.10;;;;;;;;;;5073619;28;20610;-80
2022/05/12 00:14:29;;;;;;;4.40;3.83;;;;;;;;;;5072937;28;20211;-79
2022/05/12 00:16:57;;;;;;;5.07;3.73;;;;;;;;;;5073497;28;20199;-80
2022/05/12 00:19:26;;;;;;;4.20;3.80;;;;;;;;;;5073093;28;20205;-80
2022/05/12 00:21:53;;;;;;;4.70;4.30;;;;;;;;;;5073089;28;20192;-79
2022/05/12 00:24:22;;;;;;;4.10;3.63;;;;;;;;;;5072603;28;20230;-80
2022/05/12 00:26:49;;;;;;;5.03;4.63;;;;;;;;;;5073031;28;20204;-80
2022/05/12 00:29:17;;;;;;;4.07;3.77;;;;;;;;;;5073112;28;20208;-79
2022/05/12 00:31:46;;;;;;;4.97;4.57;;;;;;;;;;5072703;28;20193;-81
2022/05/12 00:34:15;;;;;;;4.27;3.87;;;;;;;;;;5072674;28;20208;-80
2022/05/12 00:36:43;;;;;;;8.33;5.23;;;;;;;;;;5072768;28;20225;-80
2022/05/12 00:39:10;;;;;;;6.67;4.80;;;;;;;;;;5072764;28;20208;-80
2022/05/12 00:41:39;;;;;;;6.17;4.17;;;;;;;;;;5072683;28;20701;-81
2022/05/12 00:44:09;;;;;;;5.77;4.20;;;;;;;;;;5072698;28;20224;-80
2022/05/12 00:46:38;;;;;;;4.50;4.10;;;;;;;;;;5072659;28;20199;-81
2022/05/12 00:49:08;;;;;;;4.17;3.80;;;;;;;;;;5072514;28;20199;-80
2022/05/12 00:51:38;;;;;;;4.27;3.97;;;;;;;;;;5072317;28;20566;-79
2022/05/12 00:54:07;;;;;;;6.47;4.20;;;;;;;;;;5072817;28;20193;-80
2022/05/12 00:56:36;;;;;;;6.90;4.60;;;;;;;;;;5072204;28;20288;-81
2022/05/12 00:59:08;;;;;;;4.50;4.10;;;;;;;;;;5072427;28;20181;-81
2022/05/12 01:01:36;;;;;;;4.80;4.30;;;;;;;;;;5072117;28;20197;-81
2022/05/12 01:04:03;;;;;;;4.20;3.80;;;;;;;;;;5072137;28;20731;-79
2022/05/12 01:06:30;;;;;;;5.27;4.77;;;;;;;;;;5072285;28;20209;-80
2022/05/12 01:08:57;;;;;;;5.00;4.37;;;;;;;;;;5072524;28;20201;-80
2022/05/12 01:11:24;;;;;;;4.23;3.80;;;;;;;;;;5072048;28;20246;-80
2022/05/12 01:13:55;;;;;;;4.13;3.83;;;;;;;;;;5072390;28;20191;-79
2022/05/12 01:16:46;;;;;;;4.47;4.17;;;;;;;;;;5072161;28;20192;-79
2022/05/12 01:19:16;;;;;;;5.70;4.33;;;;;;;;;;5072003;28;20193;-79
2022/05/12 01:21:44;;;;;;;5.53;4.07;;;;;;;;;;5071947;28;20243;-79
2022/05/12 01:24:14;;;;;;;4.20;3.90;;;;;;;;;;5072121;28;20228;-79
2022/05/12 01:26:41;;;;;;;4.77;4.37;;;;;;;;;;5072046;28;20201;-79
2022/05/12 01:29:09;;;;;;;4.13;3.83;;;;;;;;;;5071553;28;20294;-79
2022/05/12 01:31:37;;;;;;;4.20;3.80;;;;;;;;;;5071961;28;20201;-79
2022/05/12 01:34:07;;;;;;;4.20;3.90;;;;;;;;;;5071759;28;20196;-79
2022/05/12 01:36:34;;;;;;;4.07;3.67;;;;;;;;;;5071870;28;20204;-79
2022/05/12 01:39:02;;;;;;;4.53;4.13;;;;;;;;;;5072021;28;20584;-79
2022/05/12 01:41:30;;;;;;;5.67;5.10;;;;;;;;;;5071203;28;20290;-79
2022/05/12 01:44:00;;;;;;;4.53;4.10;;;;;;;;;;5071360;28;20695;-80
2022/05/12 01:46:27;;;;;;;5.53;3.80;;;;;;;;;;5071715;28;20225;-79
2022/05/12 01:48:54;;;;;;;4.53;4.13;;;;;;;;;;5055678;28;20205;-80
2022/05/12 01:51:22;;;;;;;8.27;4.47;;;;;;;;;;5051420;28;20199;-79
2022/05/12 01:53:49;;;;;;;5.57;4.93;;;;;;;;;;5051754;28;20288;-79
2022/05/12 01:56:16;;;;;;;5.20;4.23;;;;;;;;;;5051430;28;20209;-80
2022/05/12 01:58:45;;;;;;;4.20;3.80;;;;;;;;;;5051512;28;20240;-80
2022/05/12 02:01:12;;;;;;;4.13;3.83;;;;;;;;;;5051180;28;20208;-80
2022/05/12 02:03:39;;;;;;;4.27;3.40;;;;;;;;;;5051503;28;20202;-80
2022/05/12 02:06:07;;;;;;;5.53;4.63;;;;;;;;;;5051423;28;20198;-80
2022/05/12 02:08:34;;;;;;;5.70;4.90;;;;;;;;;;5051842;28;20637;-80
2022/05/12 02:11:01;;;;;;;5.70;4.20;;;;;;;;;;5051111;28;20292;-79
2022/05/12 02:13:28;;;;;;;4.97;4.23;;;;;;;;;;5051815;28;20264;-80
2022/05/12 02:15:58;;;;;;;4.37;3.97;;;;;;;;;;5051533;28;20217;-79
2022/05/12 02:18:27;;;;;;;6.20;4.80;;;;;;;;;;5051245;28;20205;-81
2022/05/12 02:20:54;;;;;;;4.60;4.20;;;;;;;;;;5051023;28;20255;-80
2022/05/12 02:23:22;;;;;;;3.97;3.63;;;;;;;;;;5051707;28;20296;-80
2022/05/12 02:25:49;;;;;;;4.93;3.93;;;;;;;;;;5051036;28;20237;-80
2022/05/12 02:28:16;;;;;;;4.17;3.80;;;;;;;;;;5051286;28;20201;-80
2022/05/12 02:30:44;;;;;;;4.30;3.90;;;;;;;;;;5050949;28;20297;-79
2022/05/12 02:33:12;;;;;;;5.00;4.53;;;;;;;;;;5051234;28;20205;-80
2022/05/12 02:35:40;;;;;;;4.80;4.13;;;;;;;;;;5051086;28;20194;-80
2022/05/12 02:38:09;;;;;;;4.90;4.50;;;;;;;;;;5051224;28;20203;-80
2022/05/12 02:40:36;;;;;;;5.40;4.60;;;;;;;;;;5051483;28;20198;-79
2022/05/12 02:43:22;;;;;;;4.40;4.00;;;;;;;;;;5051133;28;20224;-80
2022/05/12 02:45:50;;;;;;;4.47;4.10;;;;;;;;;;5051326;28;20205;-80
2022/05/12 02:48:19;;;;;;;5.27;3.87;;;;;;;;;;5051060;28;20198;-80
2022/05/12 02:50:47;;;;;;;3.90;3.53;;;;;;;;;;5050810;28;20689;-79
2022/05/12 02:53:15;;;;;;;5.67;3.97;;;;;;;;;;5051911;28;20198;-80
2022/05/12 02:55:42;;;;;;;4.93;4.53;;;;;;;;;;5054684;28;20226;-79
2022/05/12 02:58:10;;;;;;;4.40;4.07;;;;;;;;;;5054643;28;20315;-79
2022/05/12 03:00:38;;;;;;;5.37;4.13;;;;;;;;;;5054641;28;20248;-79
2022/05/12 03:03:07;;;;;;;4.03;3.73;;;;;;;;;;5054663;28;20556;-79
2022/05/12 03:05:35;;;;;;;9.73;8.73;;;;;;;;;;5054820;28;20308;-79
2022/05/12 03:08:03;;;;;;;15.57;13.23;;;;;;;;;;5054836;28;20199;-79
2022/05/12 03:10:30;;;;;;;6.43;5.87;;;;;;;;;;5054375;28;20205;-79
2022/05/12 03:12:57;;;;;;;7.87;7.17;;;;;;;;;;5054195;28;20204;-80
2022/05/12 03:15:24;;;;;;;7.03;6.43;;;;;;;;;;5054275;28;20209;-80
2022/05/12 03:17:52;;;;;;;6.47;4.73;;;;;;;;;;5062458;28;20237;-80
2022/05/12 03:20:22;;;;;;;5.33;4.93;;;;;;;;;;5074262;28;20205;-80
2022/05/12 03:22:51;;;;;;;5.83;4.67;;;;;;;;;;5073583;28;20200;-80
2022/05/12 03:25:22;;;;;;;5.23;4.83;;;;;;;;;;5073964;28;20316;-80
2022/05/12 03:27:49;;;;;;;5.93;4.73;;;;;;;;;;5073446;28;20221;-79
2022/05/12 03:30:19;;;;;;;4.67;4.20;;;;;;;;;;5073989;28;20566;-80
2022/05/12 03:32:47;;;;;;;4.77;4.27;;;;;;;;;;5074338;28;20242;-79
2022/05/12 03:35:14;;;;;;;7.23;4.70;;;;;;;;;;5073797;28;20479;-80
2022/05/12 03:37:41;;;;;;;4.03;3.60;;;;;;;;;;5073946;28;20197;-80
2022/05/12 03:40:13;;;;;;;5.40;4.73;;;;;;;;;;5073767;28;20284;-80
2022/05/12 03:42:40;;;;;;;4.50;4.13;;;;;;;;;;5073657;28;20189;-79
2022/05/12 03:45:08;;;;;;;5.73;5.23;;;;;;;;;;5073686;28;20642;-79
2022/05/12 03:47:38;;;;;;;4.67;4.20;;;;;;;;;;5073660;28;20204;-79
2022/05/12 03:50:08;;;;;;;6.00;5.07;;;;;;;;;;5073657;28;20232;-80
2022/05/12 03:52:36;;;;;;;5.13;4.30;;;;;;;;;;5073412;28;20197;-80
2022/05/12 03:55:04;;;;;;;3.97;3.57;;;;;;;;;;5073225;28;20204;-80
2022/05/12 03:57:33;;;;;;;5.30;4.23;;;;;;;;;;5073307;28;20716;-80
2022/05/12 04:00:00;;;;;;;6.33;4.60;;;;;;;;;;5073241;28;20201;-80
2022/05/12 04:02:27;;;;;;;6.13;4.60;;;;;;;;;;5073265;28;20209;-80
2022/05/12 04:04:54;;;;;;;4.97;4.50;;;;;;;;;;5072650;28;20275;-79
2022/05/12 04:07:23;;;;;;;4.00;3.70;;;;;;;;;;5073260;28;20197;-79
2022/05/12 04:09:50;;;;;;;4.60;4.20;;;;;;;;;;5073418;28;20197;-79
2022/05/12 04:12:18;;;;;;;4.77;4.37;;;;;;;;;;5073341;28;20204;-81
2022/05/12 04:14:47;;;;;;;5.23;4.50;;;;;;;;;;5070135;28;20200;-80
2022/05/12 04:17:16;;;;;;;6.97;3.97;;;;;;;;;;5072060;28;20708;-80
2022/05/12 04:19:44;;;;;;;4.90;4.50;;;;;;;;;;5073197;28;20614;-80
2022/05/12 04:22:11;;;;;;;8.00;4.13;;;;;;;;;;5072652;28;20207;-80
2022/05/12 04:24:38;;;;;;;4.97;4.57;;;;;;;;;;5072494;28;20763;-76
2022/05/12 04:27:07;;;;;;;5.13;4.23;;;;;;;;;;5071894;28;20211;-79
2022/05/12 04:29:37;;;;;;;6.70;4.80;;;;;;;;;;5053071;28;20213;-78
2022/05/12 04:32:06;;;;;;;5.77;4.30;;;;;;;;;;5053263;28;20574;-78
2022/05/12 04:37:18;;;;;;;6.03;5.33;;;;;;;;;;5052977;28;20263;-79
2022/05/12 04:39:45;;;;;;;7.70;4.57;;;;;;;;;;5052752;28;20198;-79
2022/05/12 04:42:13;;;;;;;5.77;5.03;;;;;;;;;;5052860;28;20666;-78
2022/05/12 04:44:40;;;;;;;5.80;5.30;;;;;;;;;;5052547;28;20280;-79
2022/05/12 04:47:08;;;;;;;9.30;5.87;;;;;;;;;;5052747;28;20199;-78
2022/05/12 04:49:36;;;;;;;7.73;5.83;;;;;;;;;;5052495;28;20267;-78
2022/05/12 04:52:04;;;;;;;7.20;5.17;;;;;;;;;;5052716;28;20682;-79
2022/05/12 04:54:31;;;;;;;5.67;5.13;;;;;;;;;;5052264;28;20208;-78
2022/05/12 04:56:58;;;;;;;6.20;4.70;;;;;;;;;;5052321;28;20265;-78
2022/05/12 04:59:25;;;;;;;7.10;4.40;;;;;;;;;;5052318;28;20230;-79
2022/05/12 05:01:53;;;;;;;5.53;4.57;;;;;;;;;;5052493;28;20644;-78
2022/05/12 05:04:21;;;;;;;6.17;4.83;;;;;;;;;;5052003;28;20289;-78
2022/05/12 05:06:49;;;;;;;7.13;5.10;;;;;;;;;;5052304;28;20222;-79
2022/05/12 05:09:16;;;;;;;6.13;3.87;;;;;;;;;;5052106;28;20326;-78
2022/05/12 05:11:43;;;;;;;5.93;4.43;;;;;;;;;;5052056;28;20249;-78
2022/05/12 05:14:10;;;;;;;7.37;4.33;;;;;;;;;;5052108;28;20696;-78
2022/05/12 05:16:37;;;;;;;5.83;4.27;;;;;;;;;;5051482;28;20194;-78
2022/05/12 05:19:05;;;;;;;5.50;4.33;;;;;;;;;;5051916;28;20190;-79
2022/05/12 05:21:33;;;;;;;6.93;4.53;;;;;;;;;;5052122;28;20295;-78
2022/05/12 05:24:00;;;;;;;7.40;4.10;;;;;;;;;;5052053;28;20202;-78
2022/05/12 05:26:28;;;;;;;4.63;3.93;;;;;;;;;;5051897;28;20702;-78
2022/05/12 05:28:55;;;;;;;6.77;3.67;;;;;;;;;;5052276;28;20297;-78
2022/05/12 05:31:22;;;;;;;4.30;3.87;;;;;;;;;;5052198;28;20198;-79
2022/05/12 05:33:50;;;;;;;3.93;3.63;;;;;;;;;;5052008;28;20229;-78
2022/05/12 05:36:17;;;;;;;6.20;4.07;;;;;;;;;;5051745;28;20232;-78
2022/05/12 05:38:47;;;;;;;4.80;4.40;;;;;;;;;;5052276;28;20676;-78
2022/05/12 05:41:14;;;;;;;6.07;3.60;;;;;;;;;;5051673;28;20209;-78
2022/05/12 05:43:41;;;;;;;4.30;3.83;;;;;;;;;;5051895;28;20216;-78
2022/05/12 05:46:09;;;;;;;3.90;3.30;;;;;;;;;;5051486;28;20264;-79
2022/05/12 05:48:36;;;;;;;5.90;3.97;;;;;;;;;;5051833;28;20194;-78
2022/05/12 05:53:50;;;;;;;4.47;3.33;;;;;;;;;;5051688;28;20184;-79
2022/05/12 05:56:17;;;;;;;4.83;3.37;;;;;;;;;;5051547;28;20289;-78
2022/05/12 05:58:45;;;;;;;5.60;3.70;;;;;;;;;;5051609;28;20198;-79
2022/05/12 06:01:13;;;;;;;5.40;3.37;;;;;;;;;;5051542;28;20198;-79
2022/05/12 06:03:40;;;;;;;3.47;3.17;;;;;;;;;;5051634;28;20196;-78
2022/05/12 06:06:08;;;;;;;3.07;2.87;;;;;;;;;;5051112;28;20226;-79
2022/05/12 06:08:35;;;;;;;4.97;3.33;;;;;;;;;;5051854;28;20632;-79
2022/05/12 06:11:04;;;;;;;3.50;3.20;;;;;;;;;;5051436;28;20237;-79
2022/05/12 06:13:33;;;;;;;6.07;3.20;;;;;;;;;;5051488;28;20199;-79
2022/05/12 06:16:01;;;;;;;3.10;2.90;;;;;;;;;;5051546;28;20203;-79
2022/05/12 06:18:29;;;;;;;3.50;3.20;;;;;;;;;;5051497;28;20199;-79
2022/05/12 06:20:56;;;;;;;3.43;3.13;;;;;;;;;;5051277;28;20205;-79
2022/05/12 06:23:23;;;;;;;3.23;2.93;;;;;;;;;;5051542;28;20279;-79
2022/05/12 06:25:50;;;;;;;6.67;3.17;;;;;;;;;;5051028;28;20779;-79
2022/05/12 06:28:19;;;;;;;6.63;3.53;;;;;;;;;;5052245;28;20593;-79
2022/05/12 06:30:46;;;;;;;3.70;3.27;;;;;;;;;;5055236;28;20686;-79
2022/05/12 06:33:17;;;;;;;4.93;3.60;;;;;;;;;;5055276;28;20198;-79
2022/05/12 06:35:44;;;;;;;8.00;3.30;;;;;;;;;;5055444;28;20189;-79
2022/05/12 06:38:12;;;;;;;4.13;3.37;;;;;;;;;;5055015;28;20675;-79
2022/05/12 06:40:39;;;;;;;6.03;3.37;;;;;;;;;;5055245;28;20201;-79
2022/05/12 06:43:08;;;;;;;3.50;3.20;;;;;;;;;;5055466;28;20224;-79
2022/05/12 06:45:37;;;;;;;5.87;3.13;;;;;;;;;;5054791;28;20221;-79
2022/05/12 06:48:04;;;;;;;3.83;3.40;;;;;;;;;;5054843;28;20292;-79
2022/05/12 06:50:32;;;;;;;3.80;3.50;;;;;;;;;;5054762;28;20229;-79
2022/05/12 06:52:59;;;;;;;4.77;3.10;;;;;;;;;;5054959;28;20204;-79
2022/05/12 06:55:29;;;;;;;8.40;3.60;;;;;;;;;;5054430;28;20202;-79
2022/05/12 06:57:57;;;;;;;6.93;2.87;;;;;;;;;;5054615;28;20286;-79
2022/05/12 07:00:24;;;;;;;4.97;3.17;;;;;;;;;;5054597;28;20285;-79
2022/05/12 07:02:53;;;;;;;3.27;2.97;;;;;;;;;;5055030;28;20198;-79
2022/05/12 07:05:23;;;;;;;4.83;3.43;;;;;;;;;;5054833;28;20209;-79
2022/05/12 07:07:51;;;;;;;3.73;3.43;;;;;;;;;;5054418;28;20194;-79
2022/05/12 07:10:20;;;;;;;3.60;3.20;;;;;;;;;;5054711;28;20252;-79
2022/05/12 07:12:48;;;;;;;5.97;3.43;;;;;;;;;;5054528;28;20292;-79
2022/05/12 07:15:15;;;;;;;6.87;3.30;;;;;;;;;;5054629;28;20368;-79
2022/05/12 07:17:44;;;;;;;4.33;2.90;;;;;;;;;;5054269;28;20248;-79
2022/05/12 07:28:28;;;;;;;5.57;3.10;;;;;;;;;;5054298;28;20208;-79
2022/05/12 07:31:01;;;;;;;6.57;3.40;;;;;;;;;;5054264;28;20281;-80
2022/05/12 07:33:29;;;;;;;4.30;3.40;;;;;;;;;;5054238;28;20190;-80
2022/05/12 07:35:58;;;;;;;6.30;2.93;;;;;;;;;;5054229;28;20588;-79
2022/05/12 07:38:25;;;;;;;4.53;3.30;;;;;;;;;;5053952;28;20202;-80
2022/05/12 07:40:53;;;;;;;6.60;4.00;;;;;;;;;;5052903;28;20222;-80
2022/05/12 07:43:20;;;;;;;4.17;3.30;;;;;;;;;;5054427;28;20353;-80
2022/05/12 07:45:48;;;;;;;6.60;3.50;;;;;;;;;;5053606;28;20233;-79
2022/05/12 07:48:15;;;;;;;7.70;3.40;;;;;;;;;;5053730;28;20241;-79
2022/05/12 07:50:43;;;;;;;5.63;3.13;;;;;;;;;;5053649;28;20198;-80
2022/05/12 07:53:11;;;;;;;2.70;2.50;;;;;;;;;;5053871;28;20741;-79
2022/05/12 07:55:39;;;;;;;3.07;2.63;;;;;;;;;;5053508;28;20229;-80
2022/05/12 07:58:07;;;;;;;5.13;2.70;;;;;;;;;;5053287;28;20641;-80
2022/05/12 08:00:35;;;;;;;6.03;2.87;;;;;;;;;;5053471;28;20280;-80
2022/05/12 08:03:03;;;;;;;10.23;2.97;;;;;;;;;;5053682;28;20198;-80
2022/05/12 08:05:31;;;;;;;4.20;2.70;;;;;;;;;;5053039;28;20202;-80
2022/05/12 08:07:58;;;;;;;3.27;2.20;;;;;;;;;;5053560;28;20202;-80
2022/05/12 08:10:27;;;;;;;3.13;2.37;;;;;;;;;;5053344;28;20672;-80
2022/05/12 08:12:54;;;;;;;4.07;2.50;;;;;;;;;;5053445;28;20670;-80
2022/05/12 08:15:24;;;;;;;3.10;2.37;;;;;;;;;;5053169;28;20285;-80
2022/05/12 08:17:52;;;;;;;5.37;2.67;;;;;;;;;;5053513;28;20284;-80
2022/05/12 08:20:20;;;;;;;5.93;3.00;;;;;;;;;;5053062;28;20198;-80
2022/05/12 08:22:47;;;;;;;5.90;3.93;;;;;;;;;;5053456;28;20202;-80
2022/05/12 08:25:15;;;;;;;6.77;4.00;;;;;;;;;;5053083;28;20212;-80
2022/05/12 08:27:43;;;;;;;6.60;3.80;;;;;;;;;;5053155;28;20320;-80
2022/05/12 08:30:15;;;;;;;5.30;3.87;;;;;;;;;;5052922;28;20204;-80
2022/05/12 08:32:43;;;;;;;6.80;5.60;;;;;;;;;;5053400;28;20634;-80
2022/05/12 08:35:10;;;;;;;7.60;4.53;;;;;;;;;;5052646;28;20204;-80
2022/05/12 08:37:38;;;;;;;5.03;4.53;;;;;;;;;;5052949;28;20237;-80
2022/05/12 08:40:07;;;;;;;5.63;4.90;;;;;;;;;;5052724;28;20686;-80
2022/05/12 08:42:36;;;;;;;8.17;4.93;;;;;;;;;;5052642;28;20284;-80
2022/05/12 08:45:07;;;;;;;4.80;4.40;;;;;;;;;;5052714;28;20201;-81
2022/05/12 08:47:38;;;;;;;5.20;3.87;;;;;;;;;;5052729;28;20217;-80
2022/05/12 08:50:08;;;;;;;4.43;4.03;;;;;;;;;;5052914;28;20186;-80
2022/05/12 08:52:40;;;;;;;11.23;4.70;;;;;;;;;;5052583;28;20577;-80
2022/05/12 08:55:13;;;;;;;5.77;4.40;;;;;;;;;;5052289;28;20265;-81
2022/05/12 08:57:43;;;;;;;6.13;4.13;;;;;;;;;;5052350;28;20710;-81
2022/05/12 09:00:15;;;;;;;4.93;3.50;;;;;;;;;;5052412;28;20275;-80
2022/05/12 09:02:48;;;;;;;5.40;3.93;;;;;;;;;;5052581;28;20200;-80
2022/05/12 09:05:18;;;;;;;5.30;4.27;;;;;;;;;;5052305;28;20272;-80
2022/05/12 09:07:48;;;;;;;8.50;4.23;;;;;;;;;;5052218;28;20214;-80
2022/05/12 09:10:33;;;;;;;8.37;4.60;;;;;;;;;;5052812;28;20226;-80
2022/05/12 09:13:01;;;;;;;8.90;4.40;;;;;;;;;;5052355;28;20282;-80
2022/05/12 09:15:33;;;;;;;5.47;4.80;;;;;;;;;;5052188;28;20653;-80
2022/05/12 09:18:02;;;;;;;7.63;4.00;;;;;;;;;;5052587;28;20259;-80
2022/05/12 09:20:32;;;;;;;5.07;3.80;;;;;;;;;;5051984;28;20287;-80
2022/05/12 09:22:59;;;;;;;4.83;3.80;;;;;;;;;;5051906;28;20556;-81
2022/05/12 09:25:33;;;;;;;4.93;3.67;;;;;;;;;;5051752;28;20229;-80
2022/05/12 09:28:15;;;;;;;4.30;3.90;;;;;;;;;;5052001;28;20785;-80
2022/05/12 09:30:44;;;;;;;5.00;3.40;;;;;;;;;;5051602;28;20657;-80
2022/05/12 09:33:12;;;;;;;4.70;3.27;;;;;;;;;;5051999;28;20292;-80
2022/05/12 09:35:39;;;;;;;5.43;3.70;;;;;;;;;;5051657;28;20234;-81
2022/05/12 09:38:22;;;;;;;4.13;3.73;;;;;;;;;;5052141;28;20240;-81
2022/05/12 09:40:49;;;;;;;6.87;3.50;;;;;;;;;;5051308;28;20194;-80
2022/05/12 09:43:20;;;;;;;4.00;3.60;;;;;;;;;;5051871;28;20722;-80
2022/05/12 09:46:04;;;;;;;3.00;2.80;;;;;;;;;;5051672;28;20197;-80
2022/05/12 09:48:32;;;;;;;5.53;4.13;;;;;;;;;;5051867;28;20193;-81
2022/05/12 09:51:21;;;;;;;4.30;3.90;;;;;;;;;;5051622;28;20304;-80
2022/05/12 09:53:49;;;;;;;4.47;3.60;;;;;;;;;;5051864;28;20197;-81
2022/05/12 09:56:31;;;;;;;7.00;4.37;;;;;;;;;;5051621;28;20202;-81
2022/05/12 09:59:06;;;;;;;7.17;3.90;;;;;;;;;;5051832;28;20189;-80
2022/05/12 10:01:36;;;;;;;6.20;4.17;;;;;;;;;;5051667;28;20177;-80
2022/05/12 10:09:57;;;;;;;4.20;3.40;;;;;;;;;;5054547;28;20198;-80
2022/05/12 10:12:26;;;;;;;5.17;2.93;;;;;;;;;;5055578;28;20198;-81
2022/05/12 10:14:57;;;;;;;5.10;2.60;;;;;;;;;;5055346;28;20682;-80
2022/05/12 10:17:32;;;;;;;4.50;3.00;;;;;;;;;;5055665;28;20255;-80
2022/05/12 10:20:04;;;;;;;4.10;3.37;;;;;;;;;;5055453;28;20185;-81
2022/05/12 10:22:35;;;;;;;5.30;3.17;;;;;;;;;;5055590;28;20227;-80
2022/05/12 10:25:14;;;;;;;5.90;3.67;;;;;;;;;;5055316;28;20277;-80
2022/05/12 10:27:49;;;;;;;4.33;2.90;;;;;;;;;;5055401;28;20201;-81
2022/05/12 10:30:24;;;;;;;3.43;3.23;;;;;;;;;;5055570;28;20185;-81
2022/05/12 10:33:03;;;;;;;4.93;2.87;;;;;;;;;;5055184;28;20280;-81
2022/05/12 10:35:35;;;;;;;4.97;2.70;;;;;;;;;;5055135;28;20182;-80
2022/05/12 10:38:06;;;;;;;4.20;2.93;;;;;;;;;;5055313;28;20678;-81
2022/05/12 10:40:38;;;;;;;3.13;2.47;;;;;;;;;;5054749;28;20193;-80
2022/05/12 10:43:25;;;;;;;3.07;2.87;;;;;;;;;;5055238;28;20298;-80
2022/05/12 10:45:59;;;;;;;6.73;2.90;;;;;;;;;;5055206;28;20562;-81
2022/05/12 10:48:50;;;;;;;4.87;3.13;;;;;;;;;;5055062;28;20244;-81
2022/05/12 10:51:28;;;;;;;4.70;2.50;;;;;;;;;;5054887;28;20619;-81
2022/05/12 10:54:10;;;;;;;3.50;2.93;;;;;;;;;;5054702;28;20225;-81
2022/05/12 10:56:43;;;;;;;2.87;2.67;;;;;;;;;;5054585;28;20189;-80
2022/05/12 10:59:37;;;;;;;2.37;2.13;;;;;;;;;;5054707;28;20671;-81
2022/05/12 11:02:10;;;;;;;2.90;2.43;;;;;;;;;;5054887;28;20654;-80
2022/05/12 11:04:42;;;;;;;3.40;2.80;;;;;;;;;;5055009;28;20711;-80
2022/05/12 11:07:13;;;;;;;2.57;2.30;;;;;;;;;;5054605;28;20214;-80
2022/05/12 11:09:44;;;;;;;3.13;2.83;;;;;;;;;;5054494;28;20189;-81
2022/05/12 11:12:19;;;;;;;4.67;2.70;;;;;;;;;;5054384;28;20200;-81
2022/05/12 11:14:54;;;;;;;7.03;2.90;;;;;;;;;;5054405;28;20186;-81
2022/05/12 11:17:29;;;;;;;6.60;2.40;;;;;;;;;;5054566;28;20627;-81
2022/05/12 11:20:01;;;;;;;6.37;2.97;;;;;;;;;;5054640;28;20187;-81
2022/05/12 11:22:35;;;;;;;6.27;3.00;;;;;;;;;;5054191;28;20612;-81
2022/05/12 11:25:07;;;;;;;4.33;2.47;;;;;;;;;;5054230;28;20185;-80
2022/05/12 11:27:44;;;;;;;4.60;2.60;;;;;;;;;;5054265;28;20296;-80
2022/05/12 11:30:25;;;;;;;4.87;2.70;;;;;;;;;;5054136;28;20186;-81
2022/05/12 11:33:04;;;;;;;2.67;2.47;;;;;;;;;;5053985;28;20186;-81
2022/05/12 11:35:36;;;;;;;5.30;2.83;;;;;;;;;;5054378;28;20268;-81
2022/05/12 11:38:05;;;;;;;6.13;2.50;;;;;;;;;;5054115;28;20240;-81
2022/05/12 11:40:54;;;;;;;4.10;2.90;;;;;;;;;;5054221;28;20224;-81
2022/05/12 11:46:44;;;;;;;2.93;2.60;;;;;;;;;;5054014;28;20199;-81
2022/05/12 11:49:28;;;;;;;2.53;2.30;;;;;;;;;;5053765;28;20194;-81
2022/05/12 11:52:05;;;;;;;3.07;2.80;;;;;;;;;;5053714;28;20196;-81
2022/05/12 11:54:35;;;;;;;3.77;2.43;;;;;;;;;;5053941;28;20626;-81
2022/05/12 11:57:04;;;;;;;3.13;2.83;;;;;;;;;;5053622;28;20237;-81
2022/05/12 11:59:48;;;;;;;2.20;2.10;;;;;;;;;;5053531;28;20292;-81
2022/05/12 12:02:45;;;;;;;2.20;2.00;;;;;;;;;;5053430;28;20581;-82
2022/05/12 12:05:31;;;;;;;3.50;2.63;;;;;;;;;;5053422;28;20202;-81
2022/05/12 12:08:06;;;;;;;2.53;2.33;;;;;;;;;;5053010;28;20226;-82
2022/05/12 12:10:39;;;;;;;3.13;2.67;;;;;;;;;;5053295;28;20543;-81
2022/05/12 12:13:26;;;;;;;2.73;2.53;;;;;;;;;;5053474;28;20236;-81
2022/05/12 12:16:06;;;;;;;5.20;3.47;;;;;;;;;;5053300;28;20186;-81
2022/05/12 12:19:04;;;;;;;5.83;2.47;;;;;;;;;;5053338;28;20182;-81
2022/05/12 12:21:42;;;;;;;5.17;2.47;;;;;;;;;;5053091;28;20237;-81
2022/05/12 12:24:27;;;;;;;10.57;2.80;;;;;;;;;;5053197;28;20185;-81
2022/05/12 12:26:58;;;;;;;5.10;2.40;;;;;;;;;;5052912;28;20213;-81
2022/05/12 12:29:43;;;;;;;2.70;2.47;;;;;;;;;;5053039;28;20193;-81
2022/05/12 12:32:28;;;;;;;2.57;2.37;;;;;;;;;;5052949;28;20186;-81
2022/05/12 12:34:56;;;;;;;2.30;2.10;;;;;;;;;;5052845;28;20563;-81
2022/05/12 12:37:40;;;;;;;3.07;2.73;;;;;;;;;;5053334;28;20248;-81
2022/05/12 12:40:31;;;;;;;3.53;2.43;;;;;;;;;;5053075;28;20182;-81
2022/05/12 12:43:00;;;;;;;2.70;2.50;;;;;;;;;;5053072;28;20237;-81
2022/05/12 12:45:27;;;;;;;3.10;2.10;;;;;;;;;;5052611;28;20201;-81
2022/05/12 12:47:56;;;;;;;2.60;2.30;;;;;;;;;;5052741;28;20717;-81
2022/05/12 12:50:45;;;;;;;2.23;2.03;;;;;;;;;;5052346;28;20740;-81
2022/05/12 12:53:14;;;;;;;3.70;2.40;;;;;;;;;;5052728;28;20724;-81
2022/05/12 12:58:38;;;;;;;7.20;2.50;;;;;;;;;;5052445;28;20228;-81
2022/05/12 13:01:12;;;;;;;2.33;2.13;;;;;;;;;;5052472;28;20247;-81
2022/05/12 13:03:39;;;;;;;4.83;2.63;;;;;;;;;;5052526;28;20197;-81
2022/05/12 13:06:09;;;;;;;2.90;2.70;;;;;;;;;;5051824;28;20205;-81
2022/05/12 13:08:36;;;;;;;2.93;2.27;;;;;;;;;;5052287;28;20822;-81
2022/05/12 13:11:05;;;;;;;2.87;2.63;;;;;;;;;;5052188;28;20226;-81
2022/05/12 13:13:33;;;;;;;4.60;2.67;;;;;;;;;;5052023;28;20237;-81
2022/05/12 13:16:04;;;;;;;3.43;2.10;;;;;;;;;;5052103;28;20237;-81
2022/05/12 13:18:35;;;;;;;2.57;2.37;;;;;;;;;;5052349;28;20281;-81
2022/05/12 13:21:04;;;;;;;2.60;2.37;;;;;;;;;;5052195;28;20268;-81
2022/05/12 13:23:36;;;;;;;4.77;3.13;;;;;;;;;;5052175;28;20229;-81
2022/05/12 13:26:06;;;;;;;2.70;2.27;;;;;;;;;;5052045;28;20190;-81
2022/05/12 13:28:37;;;;;;;3.33;2.60;;;;;;;;;;5052078;28;20744;-81
2022/05/12 13:31:23;;;;;;;2.30;2.17;;;;;;;;;;5051840;28;20682;-81
2022/05/12 13:34:01;;;;;;;2.47;2.20;;;;;;;;;;5051835;28;20193;-81
2022/05/12 13:36:32;;;;;;;2.77;2.57;;;;;;;;;;5051959;28;20182;-81
2022/05/12 13:38:59;;;;;;;4.20;2.57;;;;;;;;;;5051057;28;20182;-81
2022/05/12 13:41:30;;;;;;;2.17;2.07;;;;;;;;;;5052176;28;20201;-81
2022/05/12 13:44:10;;;;;;;3.00;2.70;;;;;;;;;;5051886;28;20190;-81
2022/05/12 13:46:39;;;;;;;2.30;2.03;;;;;;;;;;5051911;28;20269;-81
2022/05/12 13:49:09;;;;;;;4.87;3.00;;;;;;;;;;5051575;28;20227;-81
2022/05/12 13:51:49;;;;;;;3.00;2.40;;;;;;;;;;5051746;28;20202;-81
2022/05/12 13:54:29;;;;;;;5.03;2.67;;;;;;;;;;5051360;28;20185;-81
2022/05/12 13:57:14;;;;;;;3.87;2.30;;;;;;;;;;5051838;28;20241;-81
2022/05/12 13:59:52;;;;;;;3.03;2.73;;;;;;;;;;5051806;28;20301;-81
2022/05/12 14:02:26;;;;;;;2.23;2.03;;;;;;;;;;5051447;28;20182;-81
2022/05/12 14:04:59;;;;;;;2.73;2.53;;;;;;;;;;5051567;28;20224;-81
2022/05/12 14:07:27;;;;;;;2.73;2.50;;;;;;;;;;5051626;28;20186;-81
2022/05/12 14:09:57;;;;;;;3.37;2.97;;;;;;;;;;5051562;28;20740;-81
2022/05/12 14:12:27;;;;;;;6.53;2.70;;;;;;;;;;5051433;28;20239;-81
2022/05/12 14:20:28;;;;;;;2.40;2.20;;;;;;;;;;5051336;28;20190;-81
2022/05/12 14:22:55;;;;;;;4.00;2.73;;;;;;;;;;5051505;28;20198;-81
2022/05/12 14:25:24;;;;;;;2.87;2.67;;;;;;;;;;5051303;28;20190;-81
2022/05/12 14:27:51;;;;;;;2.70;2.50;;;;;;;;;;5051391;28;20244;-81
2022/05/12 14:30:19;;;;;;;2.73;2.53;;;;;;;;;;5051010;28;20232;-81
2022/05/12 14:32:51;;;;;;;3.73;3.17;;;;;;;;;;5051694;28;20297;-81
2022/05/12 14:35:21;;;;;;;2.30;2.20;;;;;;;;;;5050935;28;20651;-82
2022/05/12 14:37:50;;;;;;;2.80;2.60;;;;;;;;;;5055552;28;20229;-81
2022/05/12 14:40:18;;;;;;;4.30;2.77;;;;;;;;;;5070506;28;20208;-81
2022/05/12 14:42:46;;;;;;;4.03;2.57;;;;;;;;;;5062106;28;20201;-82
2022/05/12 14:45:13;;;;;;;5.43;2.50;;;;;;;;;;5051031;28;20248;-81
2022/05/12 14:47:40;;;;;;;4.57;2.87;;;;;;;;;;5051212;28;20225;-81
2022/05/12 14:50:11;;;;;;;2.47;2.27;;;;;;;;;;5053163;28;20220;-81
2022/05/12 14:52:39;;;;;;;6.07;2.87;;;;;;;;;;5055087;28;20194;-81
2022/05/12 14:55:09;;;;;;;3.37;2.67;;;;;;;;;;5054856;28;20198;-81
2022/05/12 14:57:37;;;;;;;3.07;2.87;;;;;;;;;;5054824;28;20321;-81
2022/05/12 15:00:04;;;;;;;2.50;2.10;;;;;;;;;;5054451;28;20194;-81
2022/05/12 15:02:34;;;;;;;2.87;2.57;;;;;;;;;;5054666;28;20206;-81
2022/05/12 15:05:01;;;;;;;3.73;2.73;;;;;;;;;;5054869;28;20296;-81
2022/05/12 15:07:31;;;;;;;7.83;2.50;;;;;;;;;;5054762;28;20237;-81
2022/05/12 15:09:58;;;;;;;4.33;2.90;;;;;;;;;;5054204;28;20773;-81
2022/05/12 15:12:25;;;;;;;2.77;2.57;;;;;;;;;;5054885;28;20584;-81
2022/05/12 15:14:53;;;;;;;3.33;3.00;;;;;;;;;;5054665;28;20198;-81
2022/05/12 15:17:24;;;;;;;3.27;2.97;;;;;;;;;;5054483;28;20642;-81
2022/05/12 15:19:51;;;;;;;3.57;3.27;;;;;;;;;;5054139;28;20573;-81
2022/05/12 15:22:19;;;;;;;5.33;2.43;;;;;;;;;;5054704;28;20623;-81
2022/05/12 15:24:48;;;;;;;2.60;2.40;;;;;;;;;;5054307;28;20197;-81
2022/05/12 15:27:15;;;;;;;7.00;2.47;;;;;;;;;;5054354;28;20319;-81
2022/05/12 15:29:46;;;;;;;4.13;2.70;;;;;;;;;;5053796;28;20240;-81
2022/05/12 15:32:14;;;;;;;5.57;3.73;;;;;;;;;;5054582;28;20190;-81
2022/05/12 15:34:41;;;;;;;6.83;3.40;;;;;;;;;;5054025;28;20713;-81